sensor_id;sensor_type;location;lat;lon;timestamp;P1;durP1;ratioP1;P2;durP2;ratioP2
23242;SDS011;11790;49.578;11.214;2022-09-09T00:03:32;2.63;;;1.70;;
23242;SDS011;11790;49.578;11.214;2022-09-09T00:08:40;4.20;;;1.80;;
23242;SDS011;11790;49.578;11.214;2022-09-09T00:13:46;3.60;;;1.50;;
23242;SDS011;11790;49.578;11.214;2022-09-09T00:23:50;4.95;;;2.10;;
23242;SDS011;11790;49.578;11.214;2022-09-09T00:34:08;3.45;;;1.50;;
23242;SDS011;11790;49.578;11.214;2022-09-09T00:39:53;3.00;;;2.03;;
23242;SDS011;11790;49.578;11.214;2022-09-09T00:44:36;4.43;;;1.60;;
23242;SDS011;11790;49.578;11.214;2022-09-09T00:54:45;3.03;;;1.58;;
23242;SDS011;11790;49.578;11.214;2022-09-09T00:59:49;4.55;;;1.50;;
23242;SDS011;11790;49.578;11.214;2022-09-09T01:04:50;1.95;;;1.60;;
23242;SDS011;11790;49.578;11.214;2022-09-09T01:09:57;2.67;;;1.67;;
23242;SDS011;11790;49.578;11.214;2022-09-09T01:15:08;3.00;;;1.63;;
23242;SDS011;11790;49.578;11.214;2022-09-09T01:25:21;2.30;;;1.70;;
23242;SDS011;11790;49.578;11.214;2022-09-09T01:30:22;2.17;;;1.60;;
23242;SDS011;11790;49.578;11.214;2022-09-09T01:40:24;2.33;;;1.45;;
23242;SDS011;11790;49.578;11.214;2022-09-09T01:45:24;3.47;;;1.88;;
23242;SDS011;11790;49.578;11.214;2022-09-09T01:50:25;3.30;;;1.77;;
23242;SDS011;11790;49.578;11.214;2022-09-09T01:55:29;3.13;;;2.13;;
23242;SDS011;11790;49.578;11.214;2022-09-09T02:00:30;6.18;;;1.70;;
23242;SDS011;11790;49.578;11.214;2022-09-09T02:16:04;2.83;;;1.70;;
23242;SDS011;11790;49.578;11.214;2022-09-09T02:21:07;3.45;;;1.52;;
23242;SDS011;11790;49.578;11.214;2022-09-09T02:26:08;7.05;;;1.88;;
23242;SDS011;11790;49.578;11.214;2022-09-09T02:31:10;3.17;;;1.67;;
23242;SDS011;11790;49.578;11.214;2022-09-09T02:36:10;3.27;;;1.43;;
23242;SDS011;11790;49.578;11.214;2022-09-09T02:41:11;4.28;;;2.33;;
23242;SDS011;11790;49.578;11.214;2022-09-09T02:56:31;3.60;;;1.50;;
23242;SDS011;11790;49.578;11.214;2022-09-09T03:01:35;2.63;;;1.50;;
23242;SDS011;11790;49.578;11.214;2022-09-09T03:06:35;2.95;;;1.83;;
23242;SDS011;11790;49.578;11.214;2022-09-09T03:11:36;2.78;;;1.48;;
23242;SDS011;11790;49.578;11.214;2022-09-09T03:16:36;5.30;;;1.70;;
23242;SDS011;11790;49.578;11.214;2022-09-09T03:21:37;2.57;;;1.37;;
23242;SDS011;11790;49.578;11.214;2022-09-09T03:26:37;1.98;;;1.35;;
23242;SDS011;11790;49.578;11.214;2022-09-09T03:31:38;5.65;;;1.48;;
23242;SDS011;11790;49.578;11.214;2022-09-09T03:36:38;5.93;;;1.70;;
23242;SDS011;11790;49.578;11.214;2022-09-09T03:41:38;2.03;;;1.52;;
23242;SDS011;11790;49.578;11.214;2022-09-09T03:46:38;5.07;;;1.63;;
23242;SDS011;11790;49.578;11.214;2022-09-09T03:51:39;5.40;;;2.50;;
23242;SDS011;11790;49.578;11.214;2022-09-09T03:56:40;2.42;;;1.55;;
23242;SDS011;11790;49.578;11.214;2022-09-09T04:01:41;4.10;;;1.63;;
23242;SDS011;11790;49.578;11.214;2022-09-09T04:06:42;6.25;;;1.58;;
23242;SDS011;11790;49.578;11.214;2022-09-09T04:11:42;4.72;;;1.70;;
23242;SDS011;11790;49.578;11.214;2022-09-09T04:16:43;4.85;;;2.10;;
23242;SDS011;11790;49.578;11.214;2022-09-09T04:21:44;3.20;;;1.70;;
23242;SDS011;11790;49.578;11.214;2022-09-09T04:26:44;4.35;;;1.67;;
23242;SDS011;11790;49.578;11.214;2022-09-09T04:31:45;2.42;;;1.80;;
23242;SDS011;11790;49.578;11.214;2022-09-09T04:36:45;3.03;;;1.80;;
23242;SDS011;11790;49.578;11.214;2022-09-09T04:41:46;4.32;;;2.30;;
23242;SDS011;11790;49.578;11.214;2022-09-09T04:46:47;8.75;;;2.47;;
23242;SDS011;11790;49.578;11.214;2022-09-09T04:51:48;3.63;;;2.05;;
23242;SDS011;11790;49.578;11.214;2022-09-09T04:56:49;5.35;;;2.13;;
23242;SDS011;11790;49.578;11.214;2022-09-09T05:01:50;6.78;;;2.25;;
23242;SDS011;11790;49.578;11.214;2022-09-09T05:06:50;2.63;;;1.93;;
23242;SDS011;11790;49.578;11.214;2022-09-09T05:11:51;3.00;;;1.90;;
23242;SDS011;11790;49.578;11.214;2022-09-09T05:16:51;2.83;;;1.98;;
23242;SDS011;11790;49.578;11.214;2022-09-09T05:21:51;3.72;;;2.20;;
23242;SDS011;11790;49.578;11.214;2022-09-09T05:26:51;4.10;;;2.10;;
23242;SDS011;11790;49.578;11.214;2022-09-09T05:31:52;10.82;;;2.13;;
23242;SDS011;11790;49.578;11.214;2022-09-09T05:36:52;3.83;;;2.00;;
23242;SDS011;11790;49.578;11.214;2022-09-09T05:41:52;7.77;;;2.00;;
23242;SDS011;11790;49.578;11.214;2022-09-09T05:46:53;3.60;;;1.90;;
23242;SDS011;11790;49.578;11.214;2022-09-09T05:51:54;3.22;;;1.67;;
23242;SDS011;11790;49.578;11.214;2022-09-09T05:56:54;5.90;;;2.00;;
23242;SDS011;11790;49.578;11.214;2022-09-09T06:01:54;3.10;;;1.75;;
23242;SDS011;11790;49.578;11.214;2022-09-09T06:06:55;5.00;;;2.13;;
23242;SDS011;11790;49.578;11.214;2022-09-09T06:11:55;6.38;;;2.30;;
23242;SDS011;11790;49.578;11.214;2022-09-09T06:16:55;4.47;;;2.20;;
23242;SDS011;11790;49.578;11.214;2022-09-09T06:21:56;7.78;;;2.50;;
23242;SDS011;11790;49.578;11.214;2022-09-09T06:26:57;5.73;;;2.27;;
23242;SDS011;11790;49.578;11.214;2022-09-09T06:31:57;4.22;;;1.70;;
23242;SDS011;11790;49.578;11.214;2022-09-09T06:36:58;3.25;;;1.92;;
23242;SDS011;11790;49.578;11.214;2022-09-09T06:41:59;4.05;;;1.50;;
23242;SDS011;11790;49.578;11.214;2022-09-09T06:46:59;3.00;;;1.50;;
23242;SDS011;11790;49.578;11.214;2022-09-09T06:51:59;4.47;;;1.25;;
23242;SDS011;11790;49.578;11.214;2022-09-09T06:57:00;4.40;;;1.30;;
23242;SDS011;11790;49.578;11.214;2022-09-09T07:02:00;3.30;;;1.20;;
23242;SDS011;11790;49.578;11.214;2022-09-09T07:07:01;3.72;;;1.10;;
23242;SDS011;11790;49.578;11.214;2022-09-09T07:12:01;3.67;;;1.30;;
23242;SDS011;11790;49.578;11.214;2022-09-09T07:17:01;3.28;;;1.20;;
23242;SDS011;11790;49.578;11.214;2022-09-09T07:22:01;1.30;;;1.00;;
23242;SDS011;11790;49.578;11.214;2022-09-09T07:27:03;2.10;;;1.17;;
23242;SDS011;11790;49.578;11.214;2022-09-09T07:32:05;6.10;;;1.33;;
23242;SDS011;11790;49.578;11.214;2022-09-09T07:37:05;3.25;;;1.40;;
23242;SDS011;11790;49.578;11.214;2022-09-09T07:42:05;4.65;;;1.38;;
23242;SDS011;11790;49.578;11.214;2022-09-09T07:47:06;3.05;;;1.10;;
23242;SDS011;11790;49.578;11.214;2022-09-09T07:52:07;2.92;;;1.30;;
23242;SDS011;11790;49.578;11.214;2022-09-09T07:57:07;2.20;;;0.95;;
23242;SDS011;11790;49.578;11.214;2022-09-09T08:02:08;4.68;;;1.17;;
23242;SDS011;11790;49.578;11.214;2022-09-09T08:07:09;4.20;;;1.38;;
23242;SDS011;11790;49.578;11.214;2022-09-09T08:12:10;4.43;;;1.10;;
23242;SDS011;11790;49.578;11.214;2022-09-09T08:17:13;2.47;;;0.93;;
23242;SDS011;11790;49.578;11.214;2022-09-09T08:22:13;1.40;;;1.00;;
23242;SDS011;11790;49.578;11.214;2022-09-09T08:27:13;3.05;;;0.80;;
23242;SDS011;11790;49.578;11.214;2022-09-09T08:32:14;4.72;;;0.88;;
23242;SDS011;11790;49.578;11.214;2022-09-09T08:37:14;3.00;;;0.80;;
23242;SDS011;11790;49.578;11.214;2022-09-09T08:42:21;3.53;;;1.00;;
23242;SDS011;11790;49.578;11.214;2022-09-09T08:52:30;2.88;;;0.75;;
23242;SDS011;11790;49.578;11.214;2022-09-09T09:12:47;4.20;;;0.60;;
23242;SDS011;11790;49.578;11.214;2022-09-09T09:17:47;2.17;;;0.70;;
23242;SDS011;11790;49.578;11.214;2022-09-09T09:22:49;2.00;;;0.63;;
23242;SDS011;11790;49.578;11.214;2022-09-09T09:37:55;2.88;;;0.68;;
23242;SDS011;11790;49.578;11.214;2022-09-09T09:42:59;2.55;;;0.60;;
23242;SDS011;11790;49.578;11.214;2022-09-09T09:53:03;2.40;;;0.57;;
23242;SDS011;11790;49.578;11.214;2022-09-09T09:58:04;2.60;;;0.70;;
23242;SDS011;11790;49.578;11.214;2022-09-09T10:03:13;3.03;;;0.50;;
23242;SDS011;11790;49.578;11.214;2022-09-09T10:08:19;2.95;;;0.60;;
23242;SDS011;11790;49.578;11.214;2022-09-09T10:24:02;1.48;;;0.55;;
23242;SDS011;11790;49.578;11.214;2022-09-09T11:00:01;1.35;;;0.43;;
23242;SDS011;11790;49.578;11.214;2022-09-09T11:10:06;2.10;;;0.60;;
23242;SDS011;11790;49.578;11.214;2022-09-09T11:15:14;1.73;;;0.40;;
23242;SDS011;11790;49.578;11.214;2022-09-09T11:20:16;1.67;;;0.45;;
23242;SDS011;11790;49.578;11.214;2022-09-09T11:25:30;2.13;;;0.63;;
23242;SDS011;11790;49.578;11.214;2022-09-09T11:35:56;1.92;;;0.43;;
23242;SDS011;11790;49.578;11.214;2022-09-09T11:41:02;3.42;;;0.63;;
23242;SDS011;11790;49.578;11.214;2022-09-09T11:46:03;3.45;;;0.90;;
23242;SDS011;11790;49.578;11.214;2022-09-09T11:51:08;1.73;;;0.50;;
23242;SDS011;11790;49.578;11.214;2022-09-09T11:56:10;1.90;;;0.60;;
23242;SDS011;11790;49.578;11.214;2022-09-09T12:01:30;1.88;;;0.60;;
23242;SDS011;11790;49.578;11.214;2022-09-09T12:06:41;2.72;;;0.70;;
23242;SDS011;11790;49.578;11.214;2022-09-09T12:11:42;1.25;;;0.60;;
23242;SDS011;11790;49.578;11.214;2022-09-09T12:16:42;1.20;;;0.50;;
23242;SDS011;11790;49.578;11.214;2022-09-09T12:21:51;2.60;;;0.57;;
23242;SDS011;11790;49.578;11.214;2022-09-09T12:26:56;6.32;;;1.17;;
23242;SDS011;11790;49.578;11.214;2022-09-09T12:42:20;2.33;;;0.60;;
23242;SDS011;11790;49.578;11.214;2022-09-09T12:47:21;6.03;;;0.70;;
23242;SDS011;11790;49.578;11.214;2022-09-09T12:52:30;2.63;;;0.65;;
23242;SDS011;11790;49.578;11.214;2022-09-09T12:57:33;2.28;;;0.63;;
23242;SDS011;11790;49.578;11.214;2022-09-09T13:02:34;1.08;;;0.57;;
23242;SDS011;11790;49.578;11.214;2022-09-09T13:07:35;3.22;;;0.77;;
23242;SDS011;11790;49.578;11.214;2022-09-09T13:12:35;2.67;;;0.70;;
23242;SDS011;11790;49.578;11.214;2022-09-09T13:17:36;10.98;;;1.60;;
23242;SDS011;11790;49.578;11.214;2022-09-09T13:22:36;3.88;;;0.70;;
23242;SDS011;11790;49.578;11.214;2022-09-09T13:27:38;1.70;;;0.43;;
23242;SDS011;11790;49.578;11.214;2022-09-09T13:32:38;6.60;;;0.68;;
23242;SDS011;11790;49.578;11.214;2022-09-09T13:37:39;2.65;;;0.60;;
23242;SDS011;11790;49.578;11.214;2022-09-09T13:42:42;3.95;;;0.73;;
23242;SDS011;11790;49.578;11.214;2022-09-09T13:47:44;3.95;;;0.82;;
23242;SDS011;11790;49.578;11.214;2022-09-09T13:52:45;3.25;;;0.50;;
23242;SDS011;11790;49.578;11.214;2022-09-09T13:57:52;3.20;;;0.77;;
23242;SDS011;11790;49.578;11.214;2022-09-09T14:02:54;2.95;;;0.60;;
23242;SDS011;11790;49.578;11.214;2022-09-09T14:07:55;1.42;;;0.50;;
23242;SDS011;11790;49.578;11.214;2022-09-09T14:12:55;2.20;;;0.60;;
23242;SDS011;11790;49.578;11.214;2022-09-09T14:17:56;2.00;;;0.70;;
23242;SDS011;11790;49.578;11.214;2022-09-09T14:22:56;2.47;;;0.55;;
23242;SDS011;11790;49.578;11.214;2022-09-09T14:27:58;1.70;;;0.40;;
23242;SDS011;11790;49.578;11.214;2022-09-09T14:32:58;1.35;;;0.35;;
23242;SDS011;11790;49.578;11.214;2022-09-09T14:37:59;1.63;;;0.47;;
23242;SDS011;11790;49.578;11.214;2022-09-09T14:43:00;2.40;;;0.40;;
23242;SDS011;11790;49.578;11.214;2022-09-09T14:48:00;1.30;;;0.40;;
23242;SDS011;11790;49.578;11.214;2022-09-09T14:53:00;4.53;;;0.50;;
23242;SDS011;11790;49.578;11.214;2022-09-09T14:58:00;1.38;;;0.50;;
23242;SDS011;11790;49.578;11.214;2022-09-09T15:03:01;1.35;;;0.52;;
23242;SDS011;11790;49.578;11.214;2022-09-09T15:08:01;3.08;;;0.50;;
23242;SDS011;11790;49.578;11.214;2022-09-09T15:13:01;1.07;;;0.37;;
23242;SDS011;11790;49.578;11.214;2022-09-09T15:18:02;1.35;;;0.50;;
23242;SDS011;11790;49.578;11.214;2022-09-09T15:23:02;1.83;;;0.60;;
23242;SDS011;11790;49.578;11.214;2022-09-09T15:28:02;4.20;;;0.60;;
23242;SDS011;11790;49.578;11.214;2022-09-09T15:33:07;2.72;;;0.40;;
23242;SDS011;11790;49.578;11.214;2022-09-09T15:38:07;1.25;;;0.60;;
23242;SDS011;11790;49.578;11.214;2022-09-09T15:43:07;2.88;;;0.55;;
23242;SDS011;11790;49.578;11.214;2022-09-09T15:48:09;3.08;;;0.80;;
23242;SDS011;11790;49.578;11.214;2022-09-09T15:53:09;2.40;;;0.60;;
23242;SDS011;11790;49.578;11.214;2022-09-09T15:58:10;4.90;;;0.73;;
23242;SDS011;11790;49.578;11.214;2022-09-09T16:03:12;3.10;;;0.90;;
23242;SDS011;11790;49.578;11.214;2022-09-09T16:08:12;29.13;;;4.00;;
23242;SDS011;11790;49.578;11.214;2022-09-09T16:13:13;2.03;;;0.70;;
23242;SDS011;11790;49.578;11.214;2022-09-09T16:18:13;5.38;;;0.68;;
23242;SDS011;11790;49.578;11.214;2022-09-09T16:23:15;3.35;;;0.80;;
23242;SDS011;11790;49.578;11.214;2022-09-09T16:28:15;2.33;;;0.65;;
23242;SDS011;11790;49.578;11.214;2022-09-09T16:33:16;2.50;;;0.50;;
23242;SDS011;11790;49.578;11.214;2022-09-09T16:38:16;3.78;;;0.45;;
23242;SDS011;11790;49.578;11.214;2022-09-09T16:43:16;1.20;;;0.60;;
23242;SDS011;11790;49.578;11.214;2022-09-09T16:48:17;1.77;;;0.50;;
23242;SDS011;11790;49.578;11.214;2022-09-09T16:53:17;4.13;;;0.40;;
23242;SDS011;11790;49.578;11.214;2022-09-09T16:58:17;6.18;;;0.50;;
23242;SDS011;11790;49.578;11.214;2022-09-09T17:03:17;0.85;;;0.30;;
23242;SDS011;11790;49.578;11.214;2022-09-09T17:08:18;1.80;;;0.50;;
23242;SDS011;11790;49.578;11.214;2022-09-09T17:13:18;1.60;;;0.30;;
23242;SDS011;11790;49.578;11.214;2022-09-09T17:18:19;2.40;;;0.40;;
23242;SDS011;11790;49.578;11.214;2022-09-09T17:23:20;2.15;;;0.50;;
23242;SDS011;11790;49.578;11.214;2022-09-09T17:28:20;2.63;;;0.60;;
23242;SDS011;11790;49.578;11.214;2022-09-09T17:33:26;1.10;;;0.43;;
23242;SDS011;11790;49.578;11.214;2022-09-09T17:38:27;4.18;;;0.40;;
23242;SDS011;11790;49.578;11.214;2022-09-09T17:43:28;2.65;;;0.57;;
23242;SDS011;11790;49.578;11.214;2022-09-09T17:48:29;1.37;;;0.50;;
23242;SDS011;11790;49.578;11.214;2022-09-09T17:53:30;1.08;;;0.40;;
23242;SDS011;11790;49.578;11.214;2022-09-09T17:58:31;1.90;;;0.50;;
23242;SDS011;11790;49.578;11.214;2022-09-09T18:03:35;1.40;;;0.55;;
23242;SDS011;11790;49.578;11.214;2022-09-09T18:08:35;1.08;;;0.40;;
23242;SDS011;11790;49.578;11.214;2022-09-09T18:13:35;1.63;;;0.47;;
23242;SDS011;11790;49.578;11.214;2022-09-09T18:18:36;3.05;;;0.60;;
23242;SDS011;11790;49.578;11.214;2022-09-09T18:23:37;1.20;;;0.65;;
23242;SDS011;11790;49.578;11.214;2022-09-09T18:28:38;2.17;;;0.60;;
23242;SDS011;11790;49.578;11.214;2022-09-09T18:33:39;2.95;;;0.65;;
23242;SDS011;11790;49.578;11.214;2022-09-09T18:38:40;0.98;;;0.60;;
23242;SDS011;11790;49.578;11.214;2022-09-09T18:43:41;1.98;;;0.60;;
23242;SDS011;11790;49.578;11.214;2022-09-09T18:48:41;3.47;;;0.80;;
23242;SDS011;11790;49.578;11.214;2022-09-09T18:53:51;1.92;;;0.40;;
23242;SDS011;11790;49.578;11.214;2022-09-09T18:58:52;1.58;;;0.60;;
23242;SDS011;11790;49.578;11.214;2022-09-09T19:03:54;1.73;;;0.65;;
23242;SDS011;11790;49.578;11.214;2022-09-09T19:08:56;1.63;;;0.57;;
23242;SDS011;11790;49.578;11.214;2022-09-09T19:13:58;2.38;;;0.60;;
23242;SDS011;11790;49.578;11.214;2022-09-09T19:18:59;1.13;;;0.35;;
23242;SDS011;11790;49.578;11.214;2022-09-09T19:29:07;2.17;;;0.52;;
23242;SDS011;11790;49.578;11.214;2022-09-09T19:34:09;1.85;;;0.35;;
23242;SDS011;11790;49.578;11.214;2022-09-09T19:39:09;1.60;;;0.47;;
23242;SDS011;11790;49.578;11.214;2022-09-09T19:44:11;2.28;;;0.40;;
23242;SDS011;11790;49.578;11.214;2022-09-09T19:49:12;1.30;;;0.50;;
23242;SDS011;11790;49.578;11.214;2022-09-09T19:54:14;1.63;;;0.50;;
23242;SDS011;11790;49.578;11.214;2022-09-09T19:59:14;1.02;;;0.38;;
23242;SDS011;11790;49.578;11.214;2022-09-09T20:04:14;0.90;;;0.30;;
23242;SDS011;11790;49.578;11.214;2022-09-09T20:09:16;0.85;;;0.57;;
23242;SDS011;11790;49.578;11.214;2022-09-09T20:14:16;2.40;;;0.70;;
23242;SDS011;11790;49.578;11.214;2022-09-09T20:19:17;1.40;;;0.47;;
23242;SDS011;11790;49.578;11.214;2022-09-09T20:24:18;1.30;;;0.52;;
23242;SDS011;11790;49.578;11.214;2022-09-09T20:29:19;2.20;;;0.43;;
23242;SDS011;11790;49.578;11.214;2022-09-09T20:34:19;2.53;;;0.80;;
23242;SDS011;11790;49.578;11.214;2022-09-09T20:39:21;2.33;;;0.70;;
23242;SDS011;11790;49.578;11.214;2022-09-09T20:44:22;0.70;;;0.40;;
23242;SDS011;11790;49.578;11.214;2022-09-09T20:49:23;3.58;;;0.90;;
23242;SDS011;11790;49.578;11.214;2022-09-09T20:54:24;0.95;;;0.50;;
23242;SDS011;11790;49.578;11.214;2022-09-09T20:59:25;2.58;;;0.95;;
23242;SDS011;11790;49.578;11.214;2022-09-09T21:04:26;2.72;;;0.50;;
23242;SDS011;11790;49.578;11.214;2022-09-09T21:09:26;1.98;;;0.77;;
23242;SDS011;11790;49.578;11.214;2022-09-09T21:14:27;3.50;;;1.38;;
23242;SDS011;11790;49.578;11.214;2022-09-09T21:19:27;2.40;;;0.60;;
23242;SDS011;11790;49.578;11.214;2022-09-09T21:24:28;4.20;;;0.68;;
23242;SDS011;11790;49.578;11.214;2022-09-09T21:29:28;1.92;;;0.70;;
23242;SDS011;11790;49.578;11.214;2022-09-09T21:34:28;1.30;;;0.53;;
23242;SDS011;11790;49.578;11.214;2022-09-09T21:39:29;1.27;;;0.57;;
23242;SDS011;11790;49.578;11.214;2022-09-09T21:44:29;1.55;;;0.50;;
23242;SDS011;11790;49.578;11.214;2022-09-09T21:49:29;3.95;;;0.85;;
23242;SDS011;11790;49.578;11.214;2022-09-09T21:54:29;4.28;;;0.60;;
23242;SDS011;11790;49.578;11.214;2022-09-09T21:59:32;3.00;;;0.65;;
23242;SDS011;11790;49.578;11.214;2022-09-09T22:04:34;1.52;;;0.50;;
23242;SDS011;11790;49.578;11.214;2022-09-09T22:09:34;2.20;;;0.60;;
23242;SDS011;11790;49.578;11.214;2022-09-09T22:14:35;2.42;;;0.63;;
23242;SDS011;11790;49.578;11.214;2022-09-09T22:19:35;2.33;;;0.70;;
23242;SDS011;11790;49.578;11.214;2022-09-09T22:24:36;1.45;;;0.50;;
23242;SDS011;11790;49.578;11.214;2022-09-09T22:29:37;2.90;;;0.57;;
23242;SDS011;11790;49.578;11.214;2022-09-09T22:34:38;3.55;;;1.15;;
23242;SDS011;11790;49.578;11.214;2022-09-09T22:39:38;3.40;;;0.65;;
23242;SDS011;11790;49.578;11.214;2022-09-09T22:44:39;0.98;;;0.50;;
23242;SDS011;11790;49.578;11.214;2022-09-09T22:49:39;2.00;;;0.88;;
23242;SDS011;11790;49.578;11.214;2022-09-09T22:54:42;2.00;;;0.80;;
23242;SDS011;11790;49.578;11.214;2022-09-09T22:59:42;1.60;;;0.60;;
23242;SDS011;11790;49.578;11.214;2022-09-09T23:04:43;4.97;;;0.90;;
23242;SDS011;11790;49.578;11.214;2022-09-09T23:09:45;2.60;;;0.70;;
23242;SDS011;11790;49.578;11.214;2022-09-09T23:14:45;1.50;;;0.68;;
23242;SDS011;11790;49.578;11.214;2022-09-09T23:19:46;1.38;;;0.63;;
23242;SDS011;11790;49.578;11.214;2022-09-09T23:24:51;1.52;;;0.70;;
23242;SDS011;11790;49.578;11.214;2022-09-09T23:29:52;1.70;;;0.80;;
23242;SDS011;11790;49.578;11.214;2022-09-09T23:34:55;1.50;;;0.55;;
23242;SDS011;11790;49.578;11.214;2022-09-09T23:39:56;4.03;;;0.70;;
23242;SDS011;11790;49.578;11.214;2022-09-09T23:44:56;2.72;;;0.88;;
23242;SDS011;11790;49.578;11.214;2022-09-09T23:49:56;0.93;;;0.63;;
23242;SDS011;11790;49.578;11.214;2022-09-09T23:54:56;3.17;;;0.70;;
23242;SDS011;11790;49.578;11.214;2022-09-09T23:59:57;3.88;;;0.80;;
